»·PEaware :: N226AN KSAN-KCNO

N226AN :: KSAN-KCNO

FLIGHT INFORMATION

Flight Status: Arrived
Operator: Privately registered:
United States
More flights under this callsign
Pilot: Romain L. (19401)
Aircraft: CESSNA 208 CARAVAN
(C208)
More flights by this aircraft type
Origin: KSAN San Diego Intl-Lindbergh
United States
Destination: KCNO Chino
United States
More flights between these airports :: More routes between these airports
Route: +
File this flight plan on PilotEdge
Remarks:
Altitude:
(Current/Filed)
0ft
Speed:
(Current/Filed)
0kts
Departed: 04-Aug-18 02:25 PM
Arrived: 04-Aug-18 03:01 PM
Distance/Time
Traveled:
78nm/0:36
Distance/Time
To Go:
Arrived

Flight Plot

Page will automatically refresh every two minutes.


Map Options




Map Legend


Flown Route
Filed Route
Departure Airport
Arrival Airport
Navaid (VOR, NDB)
Fix

Horizontal Profiles

Position Reports

Time Latitude Longitude Heading Altitude Ground
Speed
04-Aug-18 14:19 32.732134 -117.176987 193 22ft 0kts
04-Aug-18 14:20 32.732134 -117.176987 193 22ft 0kts
04-Aug-18 14:21 32.732081 -117.177001 191 22ft 1kts
04-Aug-18 14:22 32.731277 -117.176656 190 22ft 0kts
04-Aug-18 14:23 32.731277 -117.176656 190 22ft 0kts
04-Aug-18 14:24 32.731277 -117.176656 190 22ft 0kts
04-Aug-18 14:25 32.730599 -117.177439 283 22ft 0kts
04-Aug-18 14:26 32.735841 -117.197879 290 458ft 111kts
04-Aug-18 14:27 32.761739 -117.224940 328 1426ft 132kts
04-Aug-18 14:28 32.794366 -117.250148 326 2206ft 142kts
04-Aug-18 14:29 32.826976 -117.276252 325 3053ft 142kts
04-Aug-18 14:30 32.865840 -117.298641 3 3150ft 161kts
04-Aug-18 14:31 32.909472 -117.287633 10 3547ft 156kts
04-Aug-18 14:32 32.954266 -117.277077 9 3564ft 169kts
04-Aug-18 14:33 32.999447 -117.261505 16 3563ft 170kts
04-Aug-18 14:34 33.043529 -117.244676 16 3922ft 158kts
04-Aug-18 14:35 33.083973 -117.229245 16 4608ft 151kts
04-Aug-18 14:36 33.112268 -117.218472 16 5101ft 150kts
04-Aug-18 14:37 33.127144 -117.212818 16 5363ft 150kts
04-Aug-18 14:38 33.165800 -117.201420 6 6038ft 148kts
04-Aug-18 14:39 33.206818 -117.195138 6 6563ft 159kts
04-Aug-18 14:40 33.249623 -117.188669 6 6564ft 172kts
04-Aug-18 14:41 33.296511 -117.181641 6 6564ft 173kts
04-Aug-18 14:42 33.343547 -117.174631 6 6564ft 173kts
04-Aug-18 14:43 33.389929 -117.168230 353 6559ft 173kts
04-Aug-18 14:44 33.429568 -117.197096 343 6565ft 172kts
04-Aug-18 14:45 33.474485 -117.211135 344 6563ft 173kts
04-Aug-18 14:46 33.520709 -117.225512 344 6563ft 173kts
04-Aug-18 14:47 33.558764 -117.258246 321 6563ft 172kts
04-Aug-18 14:48 33.596198 -117.292671 322 6563ft 172kts
04-Aug-18 14:49 33.634420 -117.327113 322 6527ft 172kts
04-Aug-18 14:50 33.672607 -117.361711 322 5952ft 172kts
04-Aug-18 14:51 33.709639 -117.395332 322 5263ft 169kts
04-Aug-18 14:52 33.746619 -117.428941 322 4593ft 167kts
04-Aug-18 14:53 33.781507 -117.460713 322 4482ft 154kts
04-Aug-18 14:54 33.817687 -117.493641 322 3789ft 167kts
04-Aug-18 14:55 33.854769 -117.527446 322 3090ft 168kts
04-Aug-18 14:56 33.891698 -117.561150 322 2501ft 156kts
04-Aug-18 14:57 33.920833 -117.583403 348 2063ft 119kts
04-Aug-18 14:58 33.949512 -117.581898 7 1532ft 96kts
04-Aug-18 14:59 33.974982 -117.581627 318 1234ft 90kts
04-Aug-18 15:00 33.976027 -117.608381 271 1046ft 79kts
04-Aug-18 15:01 33.975866 -117.634101 271 655ft 68kts
04-Aug-18 15:02 33.976500 -117.639269 8 654ft 0kts
04-Aug-18 15:03 33.976499 -117.639269 8 654ft 0kts
04-Aug-18 15:04 33.976499 -117.639269 8 654ft 0kts
04-Aug-18 15:05 33.977044 -117.637978 45 654ft 5kts
04-Aug-18 15:06 33.978131 -117.635970 9 654ft 2kts
04-Aug-18 15:07 33.977986 -117.636299 203 654ft 6kts
04-Aug-18 15:08 33.977486 -117.636372 133 654ft 0kts
04-Aug-18 15:09 33.977486 -117.636372 133 654ft 0kts
04-Aug-18 15:10 33.977486 -117.636372 133 654ft 0kts
04-Aug-18 15:11 33.977486 -117.636372 133 654ft 0kts
04-Aug-18 15:12 33.977486 -117.636372 133 654ft 0kts
04-Aug-18 15:13 33.977486 -117.636372 133 654ft 0kts
04-Aug-18 15:14 33.977486 -117.636372 133 654ft 0kts
04-Aug-18 15:15 33.977486 -117.636372 133 654ft 0kts
04-Aug-18 15:16 33.977486 -117.636372 133 654ft 0kts

Navigation Log

Ident Type
1. KSAN Airport
2. KCNO Airport